Pierrepont, New York
Current Conditions -  °F | °C
As of 8:53 AM on Saturday 25 Oct 2014 (Local Time) from KMSS Reporting Station
Overcast Overcast  
Wind Chill:   Ceiling: 4500
Heat Index:   Visibility: 10mi
Dew Point:   Wind: 8mph
Humidity: 85%   Direction: 210°SSW
Pressure: 29.77"   Gusts: NA
Location:  44.5792°N, 75.1592°W
Report Text: KMSS 251253Z AUTO 21007KT 10SM OVC045 07/04 A2977 RMK AO2 SLP084 T00670044
Loading
Personal Weather Stations






























Interactive Weather Map
Tropical Storm Tracking
New forecast layout! Learn more

10-Day Weather Forecast

Advertisements
Track Severe Weather on mobile